WUK2UB LFBD-EGGW
Flight info
| Callsign | WUK2UB |
|---|---|
| Flight time | N/A |
| Altitude | 34000 |
| Route | CNA DCT TUPAR UM616 USODA UM184 DIKRO UM185 LUGIS/N0412F240 M185 TELTU |
| Aircraft | A321/M-SDE3FGHIRWY/LB1 |
Departure
| Time | 2026-05-05 17:20 |
|---|---|
| Airport | Bordeaux–Mérignac Airport (LFBD) |
Arrival
| Time | N/A |
|---|---|
| Airport | London Luton Airport (EGGW) |
| Time | Latitude | Longitude | Altitude | Speed | Heading |
|---|---|---|---|---|---|
| 2026-05-05 17:07 | 44.83321 | -0.70213 | 162 ft | 0 kts | 135° |
| 2026-05-05 17:11 | 44.83338 | -0.70233 | 162 ft | 4 kts | 150° |
| 2026-05-05 17:11 | 44.83362 | -0.70246 | 162 ft | 4 kts | 180° |
| 2026-05-05 17:11 | 44.83385 | -0.70238 | 162 ft | 3 kts | 223° |
| 2026-05-05 17:11 | 44.83390 | -0.70231 | 162 ft | 0 kts | 225° |
| 2026-05-05 17:14 | 44.83385 | -0.70238 | 162 ft | 3 kts | 225° |
| 2026-05-05 17:14 | 44.83363 | -0.70269 | 162 ft | 7 kts | 225° |
| 2026-05-05 17:14 | 44.83362 | -0.70337 | 162 ft | 8 kts | 274° |
| 2026-05-05 17:15 | 44.83327 | -0.70419 | 162 ft | 12 kts | 227° |
| 2026-05-05 17:15 | 44.83264 | -0.70515 | 163 ft | 15 kts | 227° |
| 2026-05-05 17:15 | 44.83184 | -0.70635 | 163 ft | 18 kts | 226° |
| 2026-05-05 17:15 | 44.83086 | -0.70775 | 164 ft | 22 kts | 225° |
| 2026-05-05 17:16 | 44.82974 | -0.70924 | 165 ft | 14 kts | 211° |
| 2026-05-05 17:16 | 44.82927 | -0.70864 | 165 ft | 11 kts | 105° |
| 2026-05-05 17:16 | 44.82899 | -0.70744 | 166 ft | 15 kts | 106° |
| 2026-05-05 17:16 | 44.82865 | -0.70587 | 167 ft | 19 kts | 107° |
| 2026-05-05 17:17 | 44.82826 | -0.70394 | 167 ft | 22 kts | 107° |
| 2026-05-05 17:17 | 44.82776 | -0.70168 | 168 ft | 26 kts | 107° |
| 2026-05-05 17:17 | 44.82734 | -0.69968 | 169 ft | 14 kts | 121° |
| 2026-05-05 17:17 | 44.82690 | -0.69945 | 169 ft | 0 kts | 184° |
| 2026-05-05 17:19 | 44.82676 | -0.69948 | 169 ft | 4 kts | 189° |
| 2026-05-05 17:19 | 44.82634 | -0.69965 | 169 ft | 8 kts | 196° |
| 2026-05-05 17:19 | 44.82572 | -0.70005 | 170 ft | 11 kts | 227° |
| 2026-05-05 17:19 | 44.82578 | -0.70152 | 170 ft | 34 kts | 287° |
| 2026-05-05 17:20 | 44.82725 | -0.70862 | 166 ft | 113 kts | 287° |
| 2026-05-05 17:20 | 44.82999 | -0.72197 | 326 ft | 160 kts | 284° |
| 2026-05-05 17:20 | 44.83385 | -0.73735 | 964 ft | 177 kts | 301° |
| 2026-05-05 17:20 | 44.84390 | -0.74905 | 1468 ft | 202 kts | 328° |
| 2026-05-05 17:21 | 44.85671 | -0.75954 | 1733 ft | 225 kts | 329° |
| 2026-05-05 17:21 | 44.87086 | -0.77091 | 2168 ft | 240 kts | 329° |
| 2026-05-05 17:21 | 44.88553 | -0.78276 | 2883 ft | 244 kts | 329° |
| 2026-05-05 17:22 | 44.91534 | -0.80701 | 4338 ft | 251 kts | 332° |
| 2026-05-05 17:22 | 44.93240 | -0.81241 | 4977 ft | 260 kts | 4° |
| 2026-05-05 17:22 | 44.94927 | -0.80304 | 5614 ft | 270 kts | 31° |
| 2026-05-05 17:22 | 44.96436 | -0.78648 | 6313 ft | 277 kts | 38° |
| 2026-05-05 17:23 | 44.97867 | -0.76789 | 6942 ft | 282 kts | 42° |
| 2026-05-05 17:23 | 44.99290 | -0.74849 | 7582 ft | 286 kts | 42° |
| 2026-05-05 17:23 | 45.00738 | -0.72884 | 8223 ft | 290 kts | 42° |
| 2026-05-05 17:23 | 45.02220 | -0.70915 | 8864 ft | 295 kts | 41° |
| 2026-05-05 17:24 | 45.03740 | -0.68939 | 9518 ft | 299 kts | 41° |
| 2026-05-05 17:24 | 45.05289 | -0.66958 | 10122 ft | 304 kts | 41° |
| 2026-05-05 17:24 | 45.06921 | -0.64891 | 10271 ft | 326 kts | 41° |
| 2026-05-05 17:24 | 45.08667 | -0.62692 | 10399 ft | 347 kts | 41° |
| 2026-05-05 17:25 | 45.10520 | -0.60353 | 10519 ft | 366 kts | 41° |
| 2026-05-05 17:25 | 45.11798 | -0.58741 | 10601 ft | 379 kts | 41° |
| 2026-05-05 17:25 | 45.14654 | -0.55651 | 11063 ft | 391 kts | 30° |
| 2026-05-05 17:25 | 45.17107 | -0.53957 | 11621 ft | 394 kts | 20° |
| 2026-05-05 17:26 | 45.19713 | -0.52722 | 12190 ft | 397 kts | 17° |
| 2026-05-05 17:26 | 45.22354 | -0.51502 | 12770 ft | 401 kts | 17° |
| 2026-05-05 17:26 | 45.25023 | -0.50268 | 13376 ft | 405 kts | 17° |
| 2026-05-05 17:26 | 45.27713 | -0.49026 | 13960 ft | 408 kts | 17° |
| 2026-05-05 17:27 | 45.30427 | -0.47769 | 14493 ft | 412 kts | 18° |
| 2026-05-05 17:27 | 45.33162 | -0.46501 | 15021 ft | 415 kts | 18° |
| 2026-05-05 17:27 | 45.35921 | -0.45221 | 15569 ft | 419 kts | 18° |
| 2026-05-05 17:27 | 45.38704 | -0.43929 | 16102 ft | 422 kts | 18° |
| 2026-05-05 17:28 | 45.41509 | -0.42624 | 16628 ft | 426 kts | 18° |
| 2026-05-05 17:28 | 45.44341 | -0.41306 | 17116 ft | 430 kts | 18° |
| 2026-05-05 17:28 | 45.47193 | -0.39975 | 17622 ft | 433 kts | 18° |
| 2026-05-05 17:28 | 45.50068 | -0.38631 | 18105 ft | 437 kts | 18° |
| 2026-05-05 17:29 | 45.52969 | -0.37273 | 18527 ft | 440 kts | 18° |
| 2026-05-05 17:29 | 45.55888 | -0.35905 | 18953 ft | 443 kts | 18° |
| 2026-05-05 17:29 | 45.58828 | -0.34526 | 19389 ft | 446 kts | 19° |
| 2026-05-05 17:29 | 45.61808 | -0.33251 | 19826 ft | 449 kts | 13° |
| 2026-05-05 17:30 | 45.64911 | -0.32612 | 20245 ft | 452 kts | 3° |
| 2026-05-05 17:30 | 45.68065 | -0.32709 | 20655 ft | 455 kts | 353° |
| 2026-05-05 17:30 | 45.71176 | -0.33546 | 21067 ft | 457 kts | 343° |
| 2026-05-05 17:30 | 45.74214 | -0.34899 | 21463 ft | 459 kts | 341° |
| 2026-05-05 17:31 | 45.77266 | -0.36279 | 21864 ft | 461 kts | 341° |
| 2026-05-05 17:31 | 45.80337 | -0.37665 | 22254 ft | 464 kts | 342° |
| 2026-05-05 17:31 | 45.83427 | -0.39060 | 22648 ft | 466 kts | 342° |
| 2026-05-05 17:31 | 45.86532 | -0.40466 | 23044 ft | 469 kts | 342° |
| 2026-05-05 17:32 | 45.89646 | -0.41879 | 23424 ft | 471 kts | 342° |
| 2026-05-05 17:32 | 45.92784 | -0.43306 | 23732 ft | 474 kts | 342° |
| 2026-05-05 17:32 | 45.95933 | -0.44735 | 24060 ft | 476 kts | 342° |
| 2026-05-05 17:32 | 45.99092 | -0.46169 | 24371 ft | 478 kts | 342° |
| 2026-05-05 17:33 | 46.02275 | -0.47615 | 24686 ft | 480 kts | 342° |
| 2026-05-05 17:33 | 46.05441 | -0.49054 | 25328 ft | 470 kts | 342° |
| 2026-05-05 17:33 | 46.08496 | -0.50444 | 26507 ft | 451 kts | 342° |
| 2026-05-05 17:33 | 46.11419 | -0.51779 | 27715 ft | 431 kts | 342° |
| 2026-05-05 17:34 | 46.14257 | -0.53078 | 28481 ft | 425 kts | 343° |
| 2026-05-05 17:34 | 46.17068 | -0.54366 | 28902 ft | 424 kts | 343° |
| 2026-05-05 17:34 | 46.19883 | -0.55659 | 29258 ft | 425 kts | 343° |
| 2026-05-05 17:34 | 46.22709 | -0.56962 | 29571 ft | 427 kts | 343° |
| 2026-05-05 17:35 | 46.25547 | -0.58272 | 29883 ft | 429 kts | 343° |
| 2026-05-05 17:35 | 46.28396 | -0.59584 | 30146 ft | 431 kts | 343° |
| 2026-05-05 17:35 | 46.31257 | -0.60902 | 30407 ft | 432 kts | 343° |
| 2026-05-05 17:35 | 46.34129 | -0.62225 | 30655 ft | 434 kts | 343° |
| 2026-05-05 17:36 | 46.37012 | -0.63553 | 30901 ft | 435 kts | 343° |
| 2026-05-05 17:36 | 46.39884 | -0.64976 | 31137 ft | 437 kts | 338° |
| 2026-05-05 17:36 | 46.42626 | -0.66894 | 31391 ft | 439 kts | 330° |
| 2026-05-05 17:36 | 46.45181 | -0.69332 | 31628 ft | 440 kts | 322° |
| 2026-05-05 17:37 | 46.47521 | -0.72201 | 31860 ft | 441 kts | 317° |
| 2026-05-05 17:37 | 46.49072 | -0.74204 | 32019 ft | 442 kts | 317° |
| 2026-05-05 17:37 | 46.52128 | -0.78142 | 32355 ft | 444 kts | 317° |
| 2026-05-05 17:37 | 46.54442 | -0.81119 | 32597 ft | 445 kts | 317° |
| 2026-05-05 17:38 | 46.56762 | -0.84104 | 32830 ft | 446 kts | 317° |
| 2026-05-05 17:38 | 46.59089 | -0.87102 | 33065 ft | 448 kts | 317° |
| 2026-05-05 17:38 | 46.61427 | -0.90105 | 33306 ft | 449 kts | 317° |
| 2026-05-05 17:38 | 46.63771 | -0.93109 | 33513 ft | 450 kts | 317° |
| 2026-05-05 17:39 | 46.66121 | -0.96127 | 33740 ft | 451 kts | 317° |
| 2026-05-05 17:39 | 46.68476 | -0.99160 | 33859 ft | 452 kts | 317° |
| 2026-05-05 17:39 | 46.70832 | -1.02200 | 33888 ft | 452 kts | 317° |
| 2026-05-05 17:40 | 46.75537 | -1.08283 | 33889 ft | 452 kts | 317° |
| 2026-05-05 17:40 | 46.80234 | -1.14382 | 33885 ft | 451 kts | 317° |
| 2026-05-05 17:41 | 46.84920 | -1.20470 | 33899 ft | 451 kts | 317° |
| 2026-05-05 17:41 | 46.89609 | -1.26573 | 33884 ft | 451 kts | 317° |
| 2026-05-05 17:42 | 46.94460 | -1.32373 | 33902 ft | 452 kts | 328° |
| 2026-05-05 17:42 | 47.00209 | -1.36020 | 33904 ft | 452 kts | 346° |
| 2026-05-05 17:43 | 47.06425 | -1.37078 | 33904 ft | 450 kts | 358° |
| 2026-05-05 17:43 | 47.12686 | -1.37472 | 33903 ft | 451 kts | 358° |
| 2026-05-05 17:44 | 47.18955 | -1.37879 | 33903 ft | 450 kts | 358° |
| 2026-05-05 17:44 | 47.25216 | -1.38282 | 33910 ft | 450 kts | 359° |
| 2026-05-05 17:45 | 47.31473 | -1.38679 | 33910 ft | 450 kts | 359° |
| 2026-05-05 17:45 | 47.36714 | -1.39009 | 33917 ft | 450 kts | 359° |
| 2026-05-05 17:46 | 47.42962 | -1.39407 | 33912 ft | 449 kts | 359° |
| 2026-05-05 17:46 | 47.49203 | -1.39809 | 33912 ft | 449 kts | 359° |
| 2026-05-05 17:47 | 47.55439 | -1.40209 | 33914 ft | 448 kts | 359° |
| 2026-05-05 17:47 | 47.61673 | -1.40607 | 33919 ft | 448 kts | 359° |
| 2026-05-05 17:48 | 47.67894 | -1.41002 | 33917 ft | 447 kts | 359° |
| 2026-05-05 17:48 | 47.74113 | -1.41413 | 33921 ft | 447 kts | 359° |
| 2026-05-05 17:49 | 47.80319 | -1.41888 | 33922 ft | 447 kts | 359° |
| 2026-05-05 17:49 | 47.86523 | -1.42374 | 33924 ft | 446 kts | 359° |
| 2026-05-05 17:50 | 47.92719 | -1.42844 | 33925 ft | 446 kts | 359° |
| 2026-05-05 17:50 | 47.98914 | -1.43306 | 33929 ft | 446 kts | 359° |
| 2026-05-05 17:51 | 48.05106 | -1.43774 | 33930 ft | 445 kts | 359° |
| 2026-05-05 17:51 | 48.11297 | -1.44226 | 33932 ft | 445 kts | 359° |
| 2026-05-05 17:52 | 48.17490 | -1.44663 | 33929 ft | 445 kts | 359° |
| 2026-05-05 17:52 | 48.23680 | -1.45103 | 33931 ft | 445 kts | 359° |
| 2026-05-05 17:53 | 48.29870 | -1.45552 | 33929 ft | 445 kts | 359° |
| 2026-05-05 17:53 | 48.36061 | -1.45997 | 33927 ft | 445 kts | 359° |
| 2026-05-05 17:54 | 48.42254 | -1.46440 | 33929 ft | 446 kts | 359° |
| 2026-05-05 17:54 | 48.48449 | -1.46888 | 33934 ft | 445 kts | 359° |
| 2026-05-05 17:55 | 48.54638 | -1.47335 | 33933 ft | 445 kts | 359° |
| 2026-05-05 17:55 | 48.60825 | -1.47793 | 33935 ft | 445 kts | 359° |
| 2026-05-05 17:56 | 48.67017 | -1.48247 | 33935 ft | 445 kts | 359° |
| 2026-05-05 17:56 | 48.73201 | -1.48696 | 33944 ft | 445 kts | 359° |
| 2026-05-05 17:57 | 48.79389 | -1.49142 | 33944 ft | 445 kts | 359° |
| 2026-05-05 17:57 | 48.85576 | -1.49593 | 33944 ft | 445 kts | 0° |
| 2026-05-05 17:58 | 48.91682 | -1.48730 | 33939 ft | 439 kts | 17° |
| 2026-05-05 17:58 | 48.97436 | -1.45752 | 33942 ft | 437 kts | 23° |
| 2026-05-05 17:59 | 49.03133 | -1.42539 | 33946 ft | 437 kts | 22° |
| 2026-05-05 17:59 | 49.08841 | -1.39339 | 33954 ft | 437 kts | 22° |
| 2026-05-05 18:00 | 49.14540 | -1.36137 | 33952 ft | 436 kts | 22° |
| 2026-05-05 18:00 | 49.20228 | -1.32920 | 33952 ft | 436 kts | 22° |
| 2026-05-05 18:01 | 49.25907 | -1.29693 | 33952 ft | 435 kts | 22° |
| 2026-05-05 18:01 | 49.31582 | -1.26472 | 33951 ft | 435 kts | 22° |
| 2026-05-05 18:02 | 49.37264 | -1.23244 | 33950 ft | 435 kts | 22° |
| 2026-05-05 18:02 | 49.42941 | -1.19998 | 33940 ft | 435 kts | 22° |
| 2026-05-05 18:03 | 49.48615 | -1.16740 | 33941 ft | 435 kts | 22° |
| 2026-05-05 18:03 | 49.54287 | -1.13474 | 33949 ft | 435 kts | 22° |
| 2026-05-05 18:04 | 49.59735 | -1.09498 | 33943 ft | 432 kts | 36° |
| 2026-05-05 18:04 | 49.64519 | -1.03934 | 33938 ft | 431 kts | 39° |
| 2026-05-05 18:05 | 49.69271 | -0.98276 | 33938 ft | 432 kts | 39° |
| 2026-05-05 18:05 | 49.74241 | -0.93065 | 33934 ft | 434 kts | 27° |
| 2026-05-05 18:06 | 49.79992 | -0.90173 | 33933 ft | 438 kts | 10° |
| 2026-05-05 18:06 | 49.86072 | -0.89232 | 33932 ft | 439 kts | 6° |
| 2026-05-05 18:07 | 49.92161 | -0.88369 | 33935 ft | 440 kts | 6° |
| 2026-05-05 18:07 | 49.98254 | -0.87492 | 33946 ft | 440 kts | 6° |
| 2026-05-05 18:08 | 50.04347 | -0.86619 | 33947 ft | 439 kts | 6° |
| 2026-05-05 18:08 | 50.10435 | -0.85748 | 33907 ft | 438 kts | 6° |
| 2026-05-05 18:08 | 50.13463 | -0.85313 | 33467 ft | 435 kts | 6° |
| 2026-05-05 18:09 | 50.16464 | -0.84884 | 33005 ft | 431 kts | 6° |
| 2026-05-05 18:09 | 50.19441 | -0.84464 | 32532 ft | 427 kts | 6° |
| 2026-05-05 18:09 | 50.22390 | -0.84046 | 32052 ft | 424 kts | 6° |
| 2026-05-05 18:09 | 50.25322 | -0.83627 | 31587 ft | 421 kts | 6° |
| 2026-05-05 18:10 | 50.28230 | -0.83209 | 31123 ft | 419 kts | 6° |
| 2026-05-05 18:10 | 50.31119 | -0.82793 | 30661 ft | 416 kts | 6° |
| 2026-05-05 18:10 | 50.33997 | -0.82375 | 30204 ft | 414 kts | 6° |
| 2026-05-05 18:10 | 50.36854 | -0.81960 | 29717 ft | 411 kts | 6° |
| 2026-05-05 18:11 | 50.39691 | -0.81549 | 29235 ft | 408 kts | 5° |
| 2026-05-05 18:11 | 50.42509 | -0.81143 | 28780 ft | 404 kts | 5° |
| 2026-05-05 18:11 | 50.45300 | -0.80742 | 28346 ft | 401 kts | 5° |
| 2026-05-05 18:11 | 50.48065 | -0.80343 | 27920 ft | 398 kts | 5° |
| 2026-05-05 18:12 | 50.50811 | -0.79948 | 27514 ft | 394 kts | 5° |
| 2026-05-05 18:12 | 50.53533 | -0.79553 | 27114 ft | 391 kts | 5° |
| 2026-05-05 18:12 | 50.56230 | -0.79156 | 26720 ft | 388 kts | 5° |
| 2026-05-05 18:12 | 50.58912 | -0.78852 | 26338 ft | 385 kts | 359° |
| 2026-05-05 18:13 | 50.61581 | -0.79028 | 25955 ft | 382 kts | 356° |
| 2026-05-05 18:13 | 50.64224 | -0.79285 | 25572 ft | 379 kts | 356° |
| 2026-05-05 18:13 | 50.66841 | -0.79539 | 25212 ft | 376 kts | 356° |
| 2026-05-05 18:13 | 50.69432 | -0.79285 | 24855 ft | 372 kts | 11° |
| 2026-05-05 18:14 | 50.71955 | -0.78489 | 24469 ft | 370 kts | 11° |
| 2026-05-05 18:14 | 50.74479 | -0.77681 | 24092 ft | 367 kts | 11° |
| 2026-05-05 18:14 | 50.76971 | -0.76876 | 23720 ft | 364 kts | 11° |
| 2026-05-05 18:14 | 50.79444 | -0.76069 | 23321 ft | 362 kts | 11° |
| 2026-05-05 18:15 | 50.81857 | -0.75005 | 22872 ft | 359 kts | 19° |
| 2026-05-05 18:15 | 50.84172 | -0.73542 | 22423 ft | 357 kts | 21° |
| 2026-05-05 18:15 | 50.86460 | -0.72057 | 21997 ft | 354 kts | 21° |
| 2026-05-05 18:15 | 50.88738 | -0.70588 | 21548 ft | 352 kts | 21° |
| 2026-05-05 18:16 | 50.91000 | -0.69136 | 21120 ft | 349 kts | 21° |
| 2026-05-05 18:16 | 50.93250 | -0.67690 | 20713 ft | 347 kts | 21° |
| 2026-05-05 18:16 | 50.95480 | -0.66257 | 20298 ft | 345 kts | 21° |
| 2026-05-05 18:16 | 50.97692 | -0.64825 | 19886 ft | 342 kts | 21° |
| 2026-05-05 18:17 | 50.99892 | -0.63398 | 19478 ft | 340 kts | 22° |
| 2026-05-05 18:17 | 51.02079 | -0.61982 | 19069 ft | 338 kts | 22° |
| 2026-05-05 18:17 | 51.04247 | -0.60576 | 18673 ft | 336 kts | 22° |
| 2026-05-05 18:17 | 51.06404 | -0.59176 | 18279 ft | 334 kts | 22° |
| 2026-05-05 18:18 | 51.08545 | -0.57786 | 17847 ft | 331 kts | 22° |
| 2026-05-05 18:18 | 51.10673 | -0.56402 | 17420 ft | 329 kts | 22° |
| 2026-05-05 18:18 | 51.12785 | -0.55024 | 16986 ft | 327 kts | 22° |
| 2026-05-05 18:18 | 51.14887 | -0.53650 | 16561 ft | 325 kts | 22° |
| 2026-05-05 18:19 | 51.16978 | -0.52285 | 16144 ft | 323 kts | 22° |
| 2026-05-05 18:19 | 51.19053 | -0.50933 | 15835 ft | 318 kts | 22° |
| 2026-05-05 18:19 | 51.21077 | -0.49612 | 15976 ft | 319 kts | 22° |
| 2026-05-05 18:19 | 51.23150 | -0.48258 | 16002 ft | 324 kts | 22° |
| 2026-05-05 18:20 | 51.25240 | -0.46893 | 16004 ft | 325 kts | 22° |
| 2026-05-05 18:20 | 51.26626 | -0.45986 | 16003 ft | 325 kts | 22° |
| 2026-05-05 18:20 | 51.29432 | -0.44148 | 16005 ft | 326 kts | 22° |
| 2026-05-05 18:20 | 51.31529 | -0.42771 | 16006 ft | 326 kts | 22° |
| 2026-05-05 18:21 | 51.33627 | -0.41388 | 16008 ft | 326 kts | 22° |
| 2026-05-05 18:21 | 51.35722 | -0.40007 | 16008 ft | 326 kts | 22° |
| 2026-05-05 18:21 | 51.37823 | -0.38619 | 16008 ft | 326 kts | 22° |
| 2026-05-05 18:21 | 51.39919 | -0.37231 | 16008 ft | 326 kts | 22° |
| 2026-05-05 18:22 | 51.42021 | -0.35838 | 16009 ft | 326 kts | 22° |
| 2026-05-05 18:22 | 51.43407 | -0.34920 | 16008 ft | 327 kts | 22° |
| 2026-05-05 18:22 | 51.46161 | -0.32958 | 16009 ft | 327 kts | 25° |
| 2026-05-05 18:22 | 51.47550 | -0.31902 | 16006 ft | 327 kts | 25° |
| 2026-05-05 18:23 | 51.50261 | -0.29789 | 16010 ft | 327 kts | 26° |
| 2026-05-05 18:23 | 51.52307 | -0.28188 | 16010 ft | 327 kts | 26° |
| 2026-05-05 18:23 | 51.53687 | -0.27110 | 16007 ft | 328 kts | 25° |
| 2026-05-05 18:23 | 51.55737 | -0.25516 | 16007 ft | 328 kts | 25° |
| 2026-05-05 18:24 | 51.57796 | -0.23928 | 16009 ft | 328 kts | 25° |
| 2026-05-05 18:24 | 51.59853 | -0.22347 | 16085 ft | 327 kts | 25° |
| 2026-05-05 18:24 | 51.61906 | -0.20770 | 15960 ft | 325 kts | 25° |
| 2026-05-05 18:24 | 51.63940 | -0.19203 | 15549 ft | 323 kts | 25° |
| 2026-05-05 18:25 | 51.65968 | -0.17637 | 15144 ft | 322 kts | 25° |
| 2026-05-05 18:25 | 51.67303 | -0.16607 | 14874 ft | 321 kts | 25° |
| 2026-05-05 18:25 | 51.69993 | -0.14533 | 14338 ft | 319 kts | 25° |
| 2026-05-05 18:25 | 51.71992 | -0.12994 | 13954 ft | 318 kts | 25° |
| 2026-05-05 18:26 | 51.73977 | -0.11430 | 13537 ft | 317 kts | 29° |
| 2026-05-05 18:26 | 51.75757 | -0.09359 | 13107 ft | 316 kts | 42° |
| 2026-05-05 18:26 | 51.77378 | -0.06988 | 12702 ft | 313 kts | 31° |
| 2026-05-05 18:26 | 51.79373 | -0.05788 | 12320 ft | 306 kts | 5° |
| 2026-05-05 18:27 | 51.81473 | -0.05951 | 11901 ft | 302 kts | 346° |
| 2026-05-05 18:27 | 51.83510 | -0.06749 | 11501 ft | 301 kts | 346° |
| 2026-05-05 18:27 | 51.85556 | -0.07422 | 11062 ft | 300 kts | 354° |
| 2026-05-05 18:27 | 51.87604 | -0.07011 | 10704 ft | 299 kts | 19° |
| 2026-05-05 18:28 | 51.90905 | -0.03037 | 10056 ft | 297 kts | 41° |
| 2026-05-05 18:28 | 51.92444 | -0.00718 | 10021 ft | 300 kts | 41° |
| 2026-05-05 18:28 | 51.93968 | 0.01596 | 10030 ft | 301 kts | 41° |
| 2026-05-05 18:29 | 51.95494 | 0.03917 | 10033 ft | 301 kts | 41° |
| 2026-05-05 18:29 | 51.97022 | 0.06243 | 10030 ft | 301 kts | 41° |
| 2026-05-05 18:29 | 51.98548 | 0.08567 | 10029 ft | 301 kts | 41° |
| 2026-05-05 18:29 | 52.00074 | 0.10894 | 10034 ft | 301 kts | 41° |
| 2026-05-05 18:30 | 52.01624 | 0.13167 | 10027 ft | 299 kts | 33° |
| 2026-05-05 18:30 | 52.03452 | 0.14556 | 9772 ft | 292 kts | 9° |
| 2026-05-05 18:30 | 52.05455 | 0.14642 | 9348 ft | 288 kts | 353° |
| 2026-05-05 18:30 | 52.07439 | 0.14266 | 8951 ft | 286 kts | 351° |
| 2026-05-05 18:31 | 52.09407 | 0.13845 | 8583 ft | 284 kts | 351° |
| 2026-05-05 18:31 | 52.11361 | 0.13419 | 8244 ft | 281 kts | 351° |
| 2026-05-05 18:31 | 52.13260 | 0.13006 | 8122 ft | 270 kts | 351° |
| 2026-05-05 18:31 | 52.15092 | 0.12611 | 8011 ft | 261 kts | 351° |
| 2026-05-05 18:32 | 52.16841 | 0.11941 | 8017 ft | 258 kts | 334° |
| 2026-05-05 18:32 | 52.18284 | 0.10235 | 8027 ft | 258 kts | 310° |
| 2026-05-05 18:32 | 52.19266 | 0.07788 | 8028 ft | 259 kts | 301° |
| 2026-05-05 18:32 | 52.20177 | 0.05258 | 8020 ft | 259 kts | 301° |
| 2026-05-05 18:33 | 52.21087 | 0.02725 | 8022 ft | 259 kts | 301° |
| 2026-05-05 18:33 | 52.21998 | 0.00192 | 8023 ft | 258 kts | 301° |
| 2026-05-05 18:33 | 52.22907 | -0.02335 | 8027 ft | 258 kts | 301° |
| 2026-05-05 18:33 | 52.23817 | -0.04859 | 8025 ft | 258 kts | 301° |
| 2026-05-05 18:34 | 52.24723 | -0.07383 | 8019 ft | 258 kts | 301° |
| 2026-05-05 18:34 | 52.25633 | -0.09911 | 8029 ft | 258 kts | 301° |
| 2026-05-05 18:34 | 52.26547 | -0.12434 | 8027 ft | 258 kts | 301° |
| 2026-05-05 18:34 | 52.27462 | -0.14960 | 8033 ft | 258 kts | 301° |
| 2026-05-05 18:35 | 52.28375 | -0.17484 | 8025 ft | 258 kts | 301° |
| 2026-05-05 18:35 | 52.29287 | -0.20005 | 8023 ft | 258 kts | 301° |
| 2026-05-05 18:35 | 52.30201 | -0.22529 | 8026 ft | 258 kts | 301° |
| 2026-05-05 18:35 | 52.31112 | -0.25050 | 8036 ft | 258 kts | 301° |
| 2026-05-05 18:36 | 52.32025 | -0.27572 | 8029 ft | 258 kts | 301° |
| 2026-05-05 18:36 | 52.32940 | -0.30097 | 8032 ft | 258 kts | 301° |
| 2026-05-05 18:36 | 52.33853 | -0.32616 | 8037 ft | 258 kts | 301° |
| 2026-05-05 18:36 | 52.34746 | -0.35156 | 8032 ft | 258 kts | 295° |
| 2026-05-05 18:37 | 52.35086 | -0.38012 | 8038 ft | 260 kts | 268° |
| 2026-05-05 18:37 | 52.34850 | -0.40961 | 8038 ft | 262 kts | 262° |
| 2026-05-05 18:37 | 52.34520 | -0.43884 | 8033 ft | 262 kts | 261° |
| 2026-05-05 18:37 | 52.34181 | -0.46814 | 8027 ft | 262 kts | 261° |
| 2026-05-05 18:38 | 52.33815 | -0.49727 | 8028 ft | 263 kts | 255° |
| 2026-05-05 18:38 | 52.32926 | -0.52338 | 8034 ft | 266 kts | 234° |
| 2026-05-05 18:38 | 52.31731 | -0.54663 | 8044 ft | 267 kts | 231° |
| 2026-05-05 18:38 | 52.30304 | -0.56606 | 8032 ft | 271 kts | 207° |
| 2026-05-05 18:39 | 52.28464 | -0.57287 | 8032 ft | 276 kts | 179° |
| 2026-05-05 18:39 | 52.26543 | -0.56930 | 8032 ft | 279 kts | 172° |
| 2026-05-05 18:39 | 52.24627 | -0.56388 | 8027 ft | 279 kts | 171° |
| 2026-05-05 18:39 | 52.22715 | -0.55829 | 8027 ft | 279 kts | 171° |
| 2026-05-05 18:40 | 52.20804 | -0.55266 | 8023 ft | 280 kts | 171° |
| 2026-05-05 18:40 | 52.18886 | -0.54701 | 8025 ft | 280 kts | 171° |
| 2026-05-05 18:40 | 52.16968 | -0.54135 | 8032 ft | 280 kts | 171° |
| 2026-05-05 18:40 | 52.15026 | -0.53557 | 8023 ft | 280 kts | 171° |
| 2026-05-05 18:41 | 52.13136 | -0.53001 | 8029 ft | 280 kts | 171° |